Time;durP1;ratioP1;P1;durP2;ratioP2;P2;SDS_P1;SDS_P2;PMS_P1;PMS_P2;Temp;Humidity;BMP_temperature;BMP_pressure;BME280_temperature;BME280_humidity;BME280_pressure;Samples;Min_cycle;Max_cycle;Signal;HPM_P1;HPM_P2
2023/11/02 00:01:57;;;;;;;3.67;1.42;;;;;;;8.25;84.80;96064.94;5001398;28;20077;-53
2023/11/02 00:04:26;;;;;;;3.55;1.35;;;;;;;8.26;85.75;96045.94;5004950;28;20057;-55
2023/11/02 00:06:53;;;;;;;2.97;1.15;;;;;;;8.30;84.94;96022.50;4997656;28;20063;-50
2023/11/02 00:12:07;;;;;;;3.33;1.42;;;;;;;8.26;85.84;95981.50;5013620;28;20400;-54
2023/11/02 00:20:16;;;;;;;7.53;2.22;;;;;;;8.71;83.82;95922.97;5067798;28;20389;-53
2023/11/02 00:22:44;;;;;;;6.32;1.48;;;;;;;8.44;84.40;95905.66;5034061;28;20068;-55
2023/11/02 00:25:46;;;;;;;8.10;1.35;;;;;;;8.40;85.55;95882.72;5023169;28;20152;-54
2023/11/02 00:28:13;;;;;;;4.00;0.82;;;;;;;8.38;84.92;95849.31;5046071;28;20056;-54
2023/11/02 00:30:42;;;;;;;3.97;1.23;;;;;;;8.34;85.50;95837.50;5028453;28;20661;-52
2023/11/02 00:33:09;;;;;;;2.65;0.82;;;;;;;8.32;85.46;95826.47;5019265;28;20056;-53
2023/11/02 00:35:35;;;;;;;2.90;0.90;;;;;;;8.34;85.39;95811.72;5022403;28;20052;-56
2023/11/02 00:38:02;;;;;;;5.32;1.05;;;;;;;8.32;85.69;95803.28;5032866;28;20058;-50
2023/11/02 00:40:29;;;;;;;5.00;1.38;;;;;;;8.30;85.37;95784.47;5027724;28;20457;-57
2023/11/02 00:42:56;;;;;;;4.40;1.15;;;;;;;8.29;85.72;95768.22;5022189;28;20049;-56
2023/11/02 00:45:24;;;;;;;3.53;1.23;;;;;;;8.27;85.94;95762.31;5019022;28;20646;-53
2023/11/02 00:47:51;;;;;;;4.57;2.00;;;;;;;8.26;86.39;95741.78;5023466;28;20057;-55
2023/11/02 00:53:17;;;;;;;7.90;0.95;;;;;;;8.25;85.68;95737.56;5045156;27;20426;-55
2023/11/02 00:55:44;;;;;;;5.82;0.80;;;;;;;8.31;85.80;95703.66;5004403;28;20050;-54
2023/11/02 00:58:11;;;;;;;4.85;3.35;;;;;;;8.31;85.54;95693.34;4998088;28;20057;-55
2023/11/02 01:01:15;;;;;;;4.32;0.68;;;;;;;8.23;86.34;95692.09;5008204;28;20057;-55
2023/11/02 01:03:46;;;;;;;2.45;0.98;;;;;;;8.22;85.98;95680.13;5020609;28;20479;-49
2023/11/02 01:06:21;;;;;;;3.88;1.48;;;;;;;8.23;86.13;95657.75;4995745;28;20050;-52
2023/11/02 01:08:54;;;;;;;5.57;1.42;;;;;;;8.23;86.61;95637.97;5012309;28;20593;-50
2023/11/02 01:11:23;;;;;;;1.10;0.52;;;;;;;8.25;86.96;95637.88;5030847;28;20078;-46
2023/11/02 01:13:50;;;;;;;1.25;0.40;;;;;;;8.25;86.91;95613.84;5036801;28;20061;-52
2023/11/02 01:16:17;;;;;;;1.13;0.68;;;;;;;8.26;87.23;95606.00;5003063;28;20050;-52
2023/11/02 01:18:45;;;;;;;2.22;0.70;;;;;;;8.33;86.32;95603.84;5026428;28;20041;-54
2023/11/02 01:21:15;;;;;;;0.75;0.70;;;;;;;8.33;86.97;95594.38;5021264;28;20092;-51
2023/11/02 01:23:42;;;;;;;4.28;1.95;;;;;;;8.32;86.53;95581.56;5023272;28;20050;-53
2023/11/02 01:26:42;;;;;;;1.08;0.55;;;;;;;8.32;86.46;95561.78;5012055;28;20050;-56
2023/11/02 01:29:09;;;;;;;5.30;0.80;;;;;;;8.33;86.97;95557.44;5020818;28;20080;-50
2023/11/02 01:31:36;;;;;;;1.52;0.50;;;;;;;8.32;87.61;95540.34;5020223;28;20045;-55
2023/11/02 01:34:03;;;;;;;3.85;0.60;;;;;;;8.29;87.55;95530.22;5014123;28;20496;-52
2023/11/02 01:41:48;;;;;;;3.08;2.30;;;;;;;8.35;87.92;95496.31;5041538;27;20403;-53
2023/11/02 01:47:05;;;;;;;2.25;0.45;;;;;;;8.36;88.41;95475.59;5052160;27;20894;-54
2023/11/02 01:52:52;;;;;;;3.85;0.95;;;;;;;8.71;87.29;95444.91;5050270;28;20469;-53
2023/11/02 01:55:40;;;;;;;2.30;1.65;;;;;;;8.58;88.29;95442.38;5010791;28;20062;-51
2023/11/02 02:01:07;;;;;;;2.33;0.65;;;;;;;8.58;88.65;95426.91;5148012;27;20131;-52
2023/11/02 02:06:23;;;;;;;3.55;0.40;;;;;;;8.66;88.17;95408.31;5027351;28;20426;-51
2023/11/02 02:09:07;;;;;;;0.70;0.40;;;;;;;8.74;88.25;95411.19;5011726;28;21288;-54
2023/11/02 02:22:25;;;;;;;2.78;0.88;;;;;;;8.98;87.65;95351.03;5054452;28;20391;-55
2023/11/02 02:25:00;;;;;;;0.82;0.65;;;;;;;9.03;87.18;95335.22;4989419;28;20053;-51
2023/11/02 02:38:39;;;;;;;2.53;1.13;;;;;;;9.16;88.23;95274.03;5072414;27;20385;-49
2023/11/02 02:41:15;;;;;;;1.58;0.60;;;;;;;9.19;87.72;95255.72;5040202;28;20080;-57
2023/11/02 02:43:43;;;;;;;5.22;0.93;;;;;;;9.22;88.07;95237.44;5054548;28;20049;-50
2023/11/02 02:46:10;;;;;;;5.80;0.60;;;;;;;9.26;87.74;95241.44;5054899;28;20102;-52
2023/11/02 02:48:38;;;;;;;3.25;0.82;;;;;;;9.26;87.92;95231.09;5054877;28;20506;-50
2023/11/02 02:51:08;;;;;;;2.53;0.80;;;;;;;9.26;88.34;95223.34;5051437;28;20140;-57
2023/11/02 02:53:38;;;;;;;6.90;0.93;;;;;;;9.30;88.10;95215.38;5052802;28;20069;-58
2023/11/02 02:56:07;;;;;;;2.80;0.52;;;;;;;9.33;87.71;95202.25;5051009;28;20060;-54
2023/11/02 02:58:44;;;;;;;1.42;0.90;;;;;;;9.35;88.29;95201.19;5047617;28;20497;-49
2023/11/02 03:01:14;;;;;;;5.78;0.65;;;;;;;9.37;88.08;95185.59;5048507;28;20071;-57
2023/11/02 03:03:42;;;;;;;1.52;0.90;;;;;;;9.39;88.71;95178.53;5051749;28;20398;-52
2023/11/02 03:06:10;;;;;;;5.03;0.77;;;;;;;9.48;88.61;95172.69;5052731;28;20135;-56
2023/11/02 03:08:40;;;;;;;4.68;0.95;;;;;;;9.52;87.83;95161.19;5056192;28;20557;-50
2023/11/02 03:11:10;;;;;;;4.50;0.95;;;;;;;9.56;88.51;95158.38;5053536;28;20053;-53
2023/11/02 03:13:51;;;;;;;8.45;1.20;;;;;;;9.59;88.61;95143.44;5054454;28;20053;-53
2023/11/02 03:16:20;;;;;;;4.63;0.95;;;;;;;9.61;88.21;95127.81;5055894;28;20048;-49
2023/11/02 03:18:47;;;;;;;6.15;1.65;;;;;;;9.58;88.55;95118.56;5050393;28;20036;-50
2023/11/02 03:21:14;;;;;;;5.97;1.13;;;;;;;9.67;88.25;95098.94;5054906;28;20053;-50
2023/11/02 03:24:21;;;;;;;3.65;0.98;;;;;;;9.65;87.75;95103.41;5058132;28;20049;-51
2023/11/02 03:26:59;;;;;;;3.58;1.02;;;;;;;9.71;87.92;95090.00;5045151;28;20049;-53
2023/11/02 03:29:53;;;;;;;3.70;1.10;;;;;;;9.72;87.87;95086.47;5072470;28;20057;-50
2023/11/02 03:32:25;;;;;;;4.60;0.60;;;;;;;9.72;87.79;95081.31;5038001;28;20111;-52
2023/11/02 03:35:18;;;;;;;5.97;1.17;;;;;;;9.71;88.57;95079.69;5017891;28;20498;-46
2023/11/02 03:43:28;;;;;;;3.95;1.45;;;;;;;9.87;87.13;95060.38;5012337;27;20775;-51
2023/11/02 03:51:58;;;;;;;1.27;0.98;;;;;;;9.70;88.78;95047.03;5002663;28;20414;-52
2023/11/02 03:57:19;;;;;;;1.85;1.65;;;;;;;9.79;87.34;95024.78;5008592;28;20407;-50
2023/11/02 03:59:59;;;;;;;2.03;1.92;;;;;;;9.85;86.69;95020.91;4997623;28;20074;-52
2023/11/02 04:02:30;;;;;;;3.17;2.90;;;;;;;9.89;86.81;95019.69;4997261;28;20419;-53
2023/11/02 04:05:08;;;;;;;1.85;1.75;;;;;;;9.84;86.30;95002.00;5000487;28;20100;-49
2023/11/02 04:08:14;;;;;;;2.53;2.30;;;;;;;9.80;85.81;94994.63;4997351;28;20041;-47
2023/11/02 04:10:55;;;;;;;2.53;1.73;;;;;;;9.77;85.08;94995.69;5003495;28;20055;-52
2023/11/02 04:16:04;;;;;;;1.10;0.50;;;;;;;9.71;84.81;94973.75;5059970;27;20403;-50
2023/11/02 04:18:31;;;;;;;1.90;0.50;;;;;;;9.64;84.34;94972.63;5055692;28;20048;-56
2023/11/02 04:20:58;;;;;;;3.03;0.55;;;;;;;9.62;83.98;94971.91;5059425;28;20155;-54
2023/11/02 04:23:25;;;;;;;1.85;0.88;;;;;;;9.59;84.02;94967.81;5060868;28;20041;-59
2023/11/02 04:25:54;;;;;;;0.47;0.40;;;;;;;9.52;84.20;94959.75;5064823;28;20041;-55
2023/11/02 04:28:21;;;;;;;0.55;0.38;;;;;;;9.40;83.64;94947.81;5064530;28;20045;-56
2023/11/02 04:30:48;;;;;;;1.55;0.65;;;;;;;9.41;83.81;94943.47;5063260;28;20154;-57
2023/11/02 04:33:15;;;;;;;0.65;0.60;;;;;;;9.31;83.33;94928.72;5049119;28;20490;-50
2023/11/02 04:35:42;;;;;;;2.65;0.52;;;;;;;9.32;83.39;94935.50;5043661;28;20045;-51
2023/11/02 04:38:10;;;;;;;1.08;0.60;;;;;;;9.28;83.19;94917.84;5044241;28;20490;-53
2023/11/02 04:40:39;;;;;;;1.10;1.00;;;;;;;9.28;83.58;94912.69;5039872;28;20136;-50
2023/11/02 04:43:05;;;;;;;0.95;0.30;;;;;;;9.26;83.06;94903.28;5042566;28;20081;-57
2023/11/02 04:45:34;;;;;;;2.28;0.50;;;;;;;9.22;82.78;94907.03;5044178;28;20049;-54
2023/11/02 04:48:02;;;;;;;0.55;0.55;;;;;;;9.18;83.16;94903.06;5042949;28;20525;-55
2023/11/02 04:50:29;;;;;;;1.15;0.68;;;;;;;9.20;83.27;94896.03;5044040;28;20049;-47
2023/11/02 04:52:56;;;;;;;0.40;0.30;;;;;;;9.18;82.99;94885.00;5043903;28;20053;-54
2023/11/02 04:55:22;;;;;;;0.63;0.52;;;;;;;9.19;83.51;94884.06;5044175;28;20045;-55
2023/11/02 04:57:49;;;;;;;0.95;0.30;;;;;;;9.16;83.11;94879.16;5043845;28;20049;-60
2023/11/02 05:00:17;;;;;;;1.10;0.43;;;;;;;9.11;82.69;94873.53;5044803;28;20041;-49
2023/11/02 05:02:43;;;;;;;1.98;0.45;;;;;;;9.13;82.87;94863.91;5043653;28;20098;-54
2023/11/02 05:05:10;;;;;;;0.52;0.32;;;;;;;9.12;82.81;94857.94;5043339;28;20096;-54
2023/11/02 05:07:37;;;;;;;1.63;0.35;;;;;;;9.10;82.74;94853.84;5038137;28;20635;-55
2023/11/02 05:10:04;;;;;;;0.45;0.43;;;;;;;9.10;82.53;94843.50;5036798;28;20068;-53
2023/11/02 05:12:31;;;;;;;0.73;0.73;;;;;;;9.09;82.74;94847.03;5035397;28;20049;-52
2023/11/02 05:14:57;;;;;;;2.75;0.63;;;;;;;9.08;82.46;94835.06;5035014;28;20045;-58
2023/11/02 05:17:24;;;;;;;1.55;0.63;;;;;;;9.08;82.87;94815.25;5038244;28;20057;-53
2023/11/02 05:19:51;;;;;;;0.85;0.40;;;;;;;9.10;82.90;94812.56;5035257;28;20060;-53
2023/11/02 05:22:18;;;;;;;1.58;0.52;;;;;;;9.10;82.63;94820.28;5036673;28;20054;-52
2023/11/02 05:24:45;;;;;;;1.75;0.50;;;;;;;9.11;82.95;94815.00;5033728;28;20129;-55
2023/11/02 05:27:12;;;;;;;0.65;0.47;;;;;;;9.12;82.72;94805.50;5021640;28;20049;-52
2023/11/02 05:29:39;;;;;;;0.50;0.32;;;;;;;9.12;82.46;94802.94;5023427;28;20410;-54
2023/11/02 05:32:06;;;;;;;1.55;0.70;;;;;;;9.11;82.70;94799.53;5021234;28;20057;-55
2023/11/02 05:34:32;;;;;;;2.35;0.30;;;;;;;9.10;82.56;94797.06;5023266;28;20041;-47
2023/11/02 05:36:59;;;;;;;0.43;0.43;;;;;;;9.09;82.88;94785.13;5020178;28;20057;-51
2023/11/02 05:39:26;;;;;;;2.42;0.45;;;;;;;9.08;82.44;94778.28;5020485;28;20072;-52
2023/11/02 05:41:53;;;;;;;1.08;0.98;;;;;;;9.06;82.43;94780.19;5023655;28;20396;-56
2023/11/02 05:44:19;;;;;;;1.10;0.75;;;;;;;9.05;82.63;94769.03;5022054;28;21596;-49
2023/11/02 05:46:47;;;;;;;0.95;0.45;;;;;;;9.06;82.58;94762.97;5023210;28;20053;-48
2023/11/02 05:49:13;;;;;;;0.80;0.50;;;;;;;9.07;82.54;94766.34;5022295;28;20064;-51
2023/11/02 05:51:42;;;;;;;3.50;0.73;;;;;;;9.06;82.52;94764.72;5023162;28;20580;-56
2023/11/02 05:54:09;;;;;;;0.52;0.52;;;;;;;9.03;82.40;94754.63;5024363;28;20514;-54
2023/11/02 05:56:36;;;;;;;2.63;0.60;;;;;;;9.00;82.51;94743.66;5020792;28;20071;-50
2023/11/02 05:59:03;;;;;;;1.77;0.55;;;;;;;8.98;82.12;94736.94;5023160;28;20057;-56
2023/11/02 06:01:29;;;;;;;0.40;0.38;;;;;;;8.95;81.96;94722.53;5021089;28;20056;-57
2023/11/02 06:03:58;;;;;;;1.55;0.47;;;;;;;8.91;82.37;94721.16;5021359;28;20062;-54
2023/11/02 06:06:25;;;;;;;5.57;0.40;;;;;;;8.89;82.09;94706.75;5022888;28;20144;-53
2023/11/02 06:08:52;;;;;;;2.30;0.45;;;;;;;8.87;81.65;94699.13;5020224;28;20044;-50
2023/11/02 06:11:18;;;;;;;0.90;0.30;;;;;;;8.89;82.89;94702.44;5024824;28;20049;-56
2023/11/02 06:13:45;;;;;;;3.90;0.70;;;;;;;8.85;81.78;94698.47;5019391;28;20053;-59
2023/11/02 06:16:12;;;;;;;0.60;0.50;;;;;;;8.83;82.33;94695.19;5021166;28;20076;-52
2023/11/02 06:18:38;;;;;;;2.92;0.65;;;;;;;8.83;82.40;94697.75;5018817;28;20048;-57
2023/11/02 06:21:06;;;;;;;1.65;0.43;;;;;;;8.79;82.41;94689.47;5018274;28;20116;-55
2023/11/02 06:23:33;;;;;;;0.70;0.60;;;;;;;8.78;82.48;94689.59;5021998;28;20047;-57
2023/11/02 06:26:00;;;;;;;1.58;0.30;;;;;;;8.73;81.88;94690.78;5025155;28;20056;-51
2023/11/02 06:28:27;;;;;;;0.32;0.32;;;;;;;8.71;82.56;94690.06;5028136;28;20176;-56
2023/11/02 06:30:54;;;;;;;0.70;0.50;;;;;;;8.71;82.63;94690.06;5025448;28;20507;-50
2023/11/02 06:33:26;;;;;;;1.00;0.28;;;;;;;8.72;82.21;94696.88;5019440;28;20042;-54
2023/11/02 06:35:54;;;;;;;5.05;0.80;;;;;;;8.72;82.74;94694.28;5023225;28;20406;-52
2023/11/02 06:38:21;;;;;;;0.55;0.50;;;;;;;8.73;82.05;94687.38;5026734;28;20092;-52
2023/11/02 06:40:49;;;;;;;0.80;0.45;;;;;;;8.74;82.33;94689.84;5028919;28;20106;-55
2023/11/02 06:43:16;;;;;;;3.88;0.30;;;;;;;8.77;82.75;94680.19;5028699;28;20045;-50
2023/11/02 06:45:43;;;;;;;1.25;0.40;;;;;;;8.77;82.48;94683.59;5029067;28;20038;-57
2023/11/02 06:48:10;;;;;;;1.33;0.45;;;;;;;8.78;82.66;94681.84;5028849;28;20049;-55
2023/11/02 06:50:36;;;;;;;1.88;0.57;;;;;;;8.79;82.48;94675.75;5028249;28;20120;-54
2023/11/02 06:53:03;;;;;;;0.93;0.50;;;;;;;8.79;82.24;94668.00;5028658;28;20054;-56
2023/11/02 06:55:30;;;;;;;0.85;0.45;;;;;;;8.80;82.70;94664.47;5028561;28;20052;-55
2023/11/02 06:57:56;;;;;;;2.65;0.50;;;;;;;8.80;82.30;94656.72;5028700;28;20072;-56
2023/11/02 07:00:25;;;;;;;2.67;0.63;;;;;;;8.83;82.69;94661.66;5027742;28;20046;-54
2023/11/02 07:02:52;;;;;;;1.52;0.30;;;;;;;8.81;82.31;94658.41;5028453;28;20049;-48
2023/11/02 07:05:19;;;;;;;3.55;0.73;;;;;;;8.82;82.49;94660.03;5026887;28;20417;-51
2023/11/02 07:07:49;;;;;;;0.55;0.35;;;;;;;8.84;82.83;94652.97;5019151;28;20148;-54
2023/11/02 07:10:16;;;;;;;4.72;0.82;;;;;;;8.86;82.69;94648.50;5021176;28;20671;-52
2023/11/02 07:12:43;;;;;;;0.82;0.45;;;;;;;8.87;82.14;94658.69;5018614;28;20053;-52
2023/11/02 07:15:10;;;;;;;1.52;0.60;;;;;;;8.91;82.54;94654.09;5020559;28;20924;-54
2023/11/02 07:17:37;;;;;;;0.85;0.65;;;;;;;8.93;82.52;94652.22;5021511;28;20081;-52
2023/11/02 07:20:05;;;;;;;1.30;0.47;;;;;;;8.97;83.10;94648.44;5019707;28;20049;-54
2023/11/02 07:22:32;;;;;;;5.00;0.60;;;;;;;9.00;82.49;94643.03;5022269;28;20072;-54
2023/11/02 07:25:00;;;;;;;2.78;0.60;;;;;;;9.02;82.40;94644.66;5023065;28;20046;-55
2023/11/02 07:27:29;;;;;;;4.00;0.35;;;;;;;9.04;82.92;94642.75;5020172;28;20041;-53
2023/11/02 07:29:57;;;;;;;1.42;0.65;;;;;;;9.04;83.03;94637.56;5022306;28;20525;-49
2023/11/02 07:32:24;;;;;;;0.60;0.60;;;;;;;9.06;82.73;94643.44;5019417;28;20049;-56
2023/11/02 07:34:51;;;;;;;1.77;0.32;;;;;;;9.09;83.18;94646.56;5023492;28;20057;-49
2023/11/02 07:37:17;;;;;;;2.50;0.52;;;;;;;9.11;83.21;94641.28;5020572;28;20061;-54
2023/11/02 07:39:45;;;;;;;1.60;1.02;;;;;;;9.13;82.98;94639.41;5025156;28;20454;-57
2023/11/02 07:42:11;;;;;;;2.63;0.52;;;;;;;9.15;82.86;94640.06;5023119;28;20042;-52
2023/11/02 07:44:38;;;;;;;2.63;1.05;;;;;;;9.18;82.91;94645.00;5025909;28;20049;-46
2023/11/02 07:47:05;;;;;;;2.95;0.85;;;;;;;9.18;83.34;94647.56;5024085;28;20046;-46
2023/11/02 07:49:31;;;;;;;2.03;0.68;;;;;;;9.21;83.05;94639.56;5021200;28;20079;-51
2023/11/02 07:51:58;;;;;;;0.75;0.75;;;;;;;9.23;83.59;94637.66;5027016;28;20041;-51
2023/11/02 07:54:25;;;;;;;3.30;0.70;;;;;;;9.25;83.25;94640.94;5025668;28;20056;-51
2023/11/02 07:56:52;;;;;;;1.83;0.40;;;;;;;9.29;83.11;94640.69;5016077;28;20572;-52
2023/11/02 07:59:18;;;;;;;4.18;0.22;;;;;;;9.31;83.17;94644.78;5012794;28;20042;-46
2023/11/02 08:01:45;;;;;;;2.10;0.60;;;;;;;9.35;83.59;94645.31;5022948;28;20060;-49
2023/11/02 08:04:11;;;;;;;2.08;0.60;;;;;;;9.39;83.18;94644.09;5024592;28;20052;-53
2023/11/02 08:06:38;;;;;;;0.98;0.40;;;;;;;9.42;83.51;94630.94;5022848;28;20125;-58
2023/11/02 08:09:05;;;;;;;2.72;0.45;;;;;;;9.44;83.05;94634.22;5020909;28;20057;-56
2023/11/02 08:11:40;;;;;;;0.70;0.43;;;;;;;9.49;83.73;94632.06;5024854;28;20045;-50
2023/11/02 08:14:07;;;;;;;4.10;0.65;;;;;;;9.54;83.40;94630.84;5025744;28;20045;-56
2023/11/02 08:16:34;;;;;;;1.90;0.88;;;;;;;9.57;83.13;94628.84;5025083;28;20099;-48
2023/11/02 08:19:02;;;;;;;1.83;0.63;;;;;;;9.62;83.17;94626.66;5022858;28;20448;-52
2023/11/02 08:21:29;;;;;;;2.97;0.93;;;;;;;9.70;83.45;94623.44;5024021;28;20085;-49
2023/11/02 08:23:56;;;;;;;2.42;0.57;;;;;;;9.75;82.73;94621.25;5026024;28;20132;-46
2023/11/02 08:26:24;;;;;;;2.97;0.95;;;;;;;9.82;82.83;94625.88;5009449;28;20111;-51
2023/11/02 08:28:53;;;;;;;2.72;0.93;;;;;;;9.88;82.95;94627.94;5025931;28;20049;-55
2023/11/02 08:31:24;;;;;;;1.52;0.60;;;;;;;9.92;82.68;94629.28;5024489;28;20086;-55
2023/11/02 08:33:50;;;;;;;3.50;0.77;;;;;;;9.94;83.23;94624.81;5022679;28;20045;-54
2023/11/02 08:36:19;;;;;;;1.95;0.80;;;;;;;9.98;83.20;94627.94;5023611;28;20053;-51
2023/11/02 08:38:46;;;;;;;1.50;0.60;;;;;;;9.98;82.81;94623.59;5023261;28;20041;-56
2023/11/02 08:41:21;;;;;;;1.23;0.57;;;;;;;9.98;82.45;94625.34;5022333;28;20054;-50
2023/11/02 08:43:47;;;;;;;1.80;0.70;;;;;;;9.98;82.58;94626.19;5020587;28;20053;-51
2023/11/02 08:46:16;;;;;;;1.92;0.55;;;;;;;9.96;82.13;94633.25;5019335;28;20045;-52
2023/11/02 08:48:45;;;;;;;2.17;0.32;;;;;;;9.95;82.23;94631.63;5040884;28;20041;-48
2023/11/02 08:51:16;;;;;;;2.63;0.35;;;;;;;9.93;82.59;94620.59;5024682;28;20051;-54
2023/11/02 08:53:44;;;;;;;1.27;0.95;;;;;;;9.92;82.90;94631.09;5026818;28;20124;-58
2023/11/02 08:56:12;;;;;;;0.60;0.45;;;;;;;9.89;82.59;94616.63;5026879;28;20053;-54
2023/11/02 08:58:42;;;;;;;1.17;0.35;;;;;;;9.91;82.23;94625.09;5024443;28;20049;-58
2023/11/02 09:01:10;;;;;;;1.77;0.82;;;;;;;9.92;82.46;94621.53;5020196;28;20049;-52
2023/11/02 09:03:38;;;;;;;1.75;0.50;;;;;;;9.95;83.14;94626.44;5029689;28;20136;-48
2023/11/02 09:06:06;;;;;;;2.97;0.65;;;;;;;9.97;83.18;94624.53;5029282;28;20054;-49
2023/11/02 09:08:36;;;;;;;1.70;0.68;;;;;;;9.99;82.53;94625.22;5024451;28;20045;-48
2023/11/02 09:11:04;;;;;;;2.33;0.70;;;;;;;10.06;83.24;94628.09;5024968;28;20056;-56
2023/11/02 09:13:31;;;;;;;2.20;0.40;;;;;;;10.13;82.87;94628.34;5034209;28;20329;-55
2023/11/02 09:15:58;;;;;;;0.93;0.60;;;;;;;10.19;82.98;94633.00;5030926;28;20050;-53
2023/11/02 09:18:26;;;;;;;1.23;1.02;;;;;;;10.29;82.79;94633.81;5028516;28;20041;-49
2023/11/02 09:20:53;;;;;;;0.57;0.50;;;;;;;10.34;82.96;94635.97;5028461;28;20076;-49
2023/11/02 09:23:19;;;;;;;0.68;0.50;;;;;;;10.37;82.23;94642.66;5029638;28;20049;-58
2023/11/02 09:25:47;;;;;;;2.13;0.60;;;;;;;10.41;82.54;94641.44;5029354;28;20056;-57
2023/11/02 09:28:15;;;;;;;1.33;0.75;;;;;;;10.43;82.08;94639.50;5023523;28;20058;-51
2023/11/02 09:30:43;;;;;;;3.88;0.90;;;;;;;10.47;82.46;94650.44;5026925;28;20053;-53
2023/11/02 09:33:10;;;;;;;9.27;1.55;;;;;;;10.50;82.30;94645.81;5028737;28;20179;-51
2023/11/02 09:35:38;;;;;;;1.92;0.85;;;;;;;10.52;82.19;94650.84;5035557;28;20061;-52
2023/11/02 09:38:05;;;;;;;4.45;0.80;;;;;;;10.57;82.05;94655.63;5021384;28;20045;-56
2023/11/02 09:40:32;;;;;;;3.80;1.02;;;;;;;10.60;82.30;94655.34;5028275;28;20060;-53
2023/11/02 09:43:04;;;;;;;1.90;1.65;;;;;;;10.66;82.56;94657.34;5027085;28;20509;-50
2023/11/02 09:45:32;;;;;;;0.45;0.38;;;;;;;10.72;81.93;94659.41;5030379;28;20048;-53
2023/11/02 09:47:59;;;;;;;1.50;0.70;;;;;;;10.85;82.17;94668.66;5027274;28;20136;-52
2023/11/02 09:50:27;;;;;;;1.73;0.95;;;;;;;10.91;82.60;94666.31;5043110;28;20045;-54
2023/11/02 09:52:54;;;;;;;1.90;0.80;;;;;;;10.96;82.58;94671.06;5043096;28;20087;-50
2023/11/02 09:55:22;;;;;;;1.45;1.10;;;;;;;11.01;82.15;94666.28;5025386;28;20045;-53
2023/11/02 09:57:50;;;;;;;2.60;1.00;;;;;;;11.00;81.47;94677.59;5028686;28;20053;-51
2023/11/02 10:00:18;;;;;;;4.93;1.30;;;;;;;10.97;82.01;94679.66;5028658;28;20053;-50
2023/11/02 10:02:47;;;;;;;4.22;1.30;;;;;;;10.94;80.87;94685.91;5016572;28;20539;-58
2023/11/02 10:05:14;;;;;;;2.40;1.42;;;;;;;10.93;81.50;94692.88;5002845;28;20050;-48
2023/11/02 10:07:41;;;;;;;3.78;1.67;;;;;;;10.89;81.07;94686.34;5008441;28;20060;-47
2023/11/02 10:10:10;;;;;;;3.63;1.70;;;;;;;10.87;81.23;94700.34;5001971;28;20116;-46
2023/11/02 10:12:38;;;;;;;2.38;1.20;;;;;;;10.84;80.79;94703.25;5040125;28;20052;-57
2023/11/02 10:15:07;;;;;;;2.10;1.10;;;;;;;10.79;81.18;94694.13;5007697;28;20050;-48
2023/11/02 10:17:36;;;;;;;4.05;1.60;;;;;;;10.80;81.36;94703.50;5024299;28;20076;-47
2023/11/02 10:20:09;;;;;;;5.05;0.93;;;;;;;10.80;81.82;94702.69;5040697;28;20506;-54
2023/11/02 10:22:36;;;;;;;2.15;1.00;;;;;;;10.83;81.99;94706.75;5001106;28;20053;-54
2023/11/02 10:25:04;;;;;;;2.90;1.27;;;;;;;10.85;81.25;94704.88;5008468;28;20049;-58
2023/11/02 10:27:31;;;;;;;2.53;0.80;;;;;;;10.89;81.08;94716.56;5005192;28;20050;-55
2023/11/02 10:29:59;;;;;;;2.80;0.90;;;;;;;10.95;81.36;94721.22;5008887;28;20529;-54
2023/11/02 10:32:28;;;;;;;2.45;0.93;;;;;;;10.96;81.50;94722.84;5008661;28;20048;-49
2023/11/02 10:34:56;;;;;;;1.48;0.80;;;;;;;11.03;81.43;94726.50;5009309;28;20152;-53
2023/11/02 10:37:32;;;;;;;3.05;0.63;;;;;;;11.04;81.29;94728.13;5008691;28;20133;-56
2023/11/02 10:39:59;;;;;;;2.13;0.90;;;;;;;11.08;81.87;94735.63;5021981;28;20053;-51
2023/11/02 10:42:27;;;;;;;1.42;0.88;;;;;;;11.09;80.69;94739.84;5026581;28;20049;-47
2023/11/02 10:44:56;;;;;;;4.10;0.90;;;;;;;11.10;81.51;94739.72;5024119;28;20742;-52
2023/11/02 10:47:29;;;;;;;2.65;0.85;;;;;;;11.14;81.10;94741.06;5025940;28;20057;-51
2023/11/02 10:49:59;;;;;;;2.45;1.13;;;;;;;11.25;80.83;94750.44;5027663;28;20049;-56
2023/11/02 10:52:32;;;;;;;6.00;2.20;;;;;;;11.38;81.34;94746.75;5019322;28;20045;-49
2023/11/02 10:57:37;;;;;;;2.70;1.63;;;;;;;11.68;81.94;94753.47;5089831;27;20398;-56
2023/11/02 11:00:04;;;;;;;2.58;1.27;;;;;;;11.78;81.68;94761.22;5056850;28;20066;-52
2023/11/02 11:02:34;;;;;;;3.35;2.03;;;;;;;11.82;80.62;94759.97;5068259;28;20210;-59
2023/11/02 11:05:05;;;;;;;4.43;1.20;;;;;;;11.87;81.66;94771.66;5046631;28;20261;-56
2023/11/02 11:07:36;;;;;;;;;;;;;;;11.77;80.60;94772.53;5084021;28;20071;-53
2023/11/02 11:10:03;;;;;;;1.85;0.82;;;;;;;11.90;80.61;94771.38;5082389;28;20416;-50
2023/11/02 11:12:31;;;;;;;6.20;2.88;;;;;;;11.97;80.08;94772.47;5072753;28;20058;-48
2023/11/02 11:14:59;;;;;;;3.42;1.10;;;;;;;11.98;80.06;94776.69;5076196;28;20052;-56
2023/11/02 11:17:27;;;;;;;4.07;1.48;;;;;;;12.01;80.75;94784.16;5090240;28;20745;-55
2023/11/02 11:19:55;;;;;;;2.00;1.10;;;;;;;12.01;80.58;94781.56;5084519;28;20414;-50
2023/11/02 11:22:27;;;;;;;4.70;1.80;;;;;;;11.98;79.35;94783.63;5063736;28;20046;-53
2023/11/02 11:24:55;;;;;;;6.28;1.77;;;;;;;11.98;80.17;94788.81;5075319;28;20056;-51
2023/11/02 11:27:32;;;;;;;4.30;1.90;;;;;;;11.94;79.96;94793.47;5063388;28;20040;-50
2023/11/02 11:30:03;;;;;;;4.70;1.67;;;;;;;11.92;80.23;94796.22;5054745;28;20044;-54
2023/11/02 11:32:32;;;;;;;2.97;1.95;;;;;;;11.92;80.44;94801.38;5057984;28;20115;-53
2023/11/02 11:37:57;;;;;;;4.60;1.45;;;;;;;11.79;80.00;94801.69;5049919;28;20392;-52
2023/11/02 11:43:06;;;;;;;5.88;1.67;;;;;;;11.88;79.52;94809.59;5058120;28;20904;-52
2023/11/02 11:45:36;;;;;;;4.25;0.93;;;;;;;11.85;80.34;94815.06;5005993;28;20062;-53
2023/11/02 11:48:06;;;;;;;4.03;0.73;;;;;;;11.79;79.35;94809.47;5035663;28;20147;-51
2023/11/02 11:53:17;;;;;;;3.92;2.72;;;;;;;11.72;80.46;94821.34;5041586;28;20449;-49
2023/11/02 11:55:49;;;;;;;1.77;1.67;;;;;;;11.68;79.02;94820.84;4999732;28;20046;-55
2023/11/02 11:58:19;;;;;;;5.28;2.30;;;;;;;11.63;80.34;94817.84;5020932;28;20565;-57
2023/11/02 12:06:10;;;;;;;2.33;1.00;;;;;;;11.59;80.37;94831.22;5059944;27;20396;-54
2023/11/02 12:08:47;;;;;;;4.28;1.17;;;;;;;11.42;79.54;94825.81;5044437;28;20496;-52
2023/11/02 12:11:21;;;;;;;0.95;0.47;;;;;;;11.29;80.88;94836.44;5033761;28;20056;-59
2023/11/02 12:13:52;;;;;;;4.55;2.28;;;;;;;11.28;80.95;94835.63;5066871;28;20462;-50
2023/11/02 12:16:20;;;;;;;2.25;1.13;;;;;;;11.27;80.77;94844.34;5055652;28;20053;-55
2023/11/02 12:18:51;;;;;;;3.00;1.15;;;;;;;11.28;81.03;94845.97;5066204;28;20049;-49
2023/11/02 12:21:19;;;;;;;3.50;1.20;;;;;;;11.24;81.20;94844.63;5033973;28;20048;-55
2023/11/02 12:23:48;;;;;;;5.38;1.02;;;;;;;11.34;81.00;94854.16;5039096;28;20497;-52
2023/11/02 12:26:18;;;;;;;3.72;0.75;;;;;;;11.39;80.47;94862.34;5076983;28;20065;-53
2023/11/02 12:28:48;;;;;;;3.35;1.15;;;;;;;11.36;81.04;94862.59;5059840;28;20470;-50
2023/11/02 12:34:11;;;;;;;2.70;1.75;;;;;;;11.43;81.72;94879.22;5034355;27;20398;-48
2023/11/02 12:36:39;;;;;;;4.68;2.30;;;;;;;11.45;81.32;94887.66;5016660;28;20502;-46
2023/11/02 12:39:13;;;;;;;3.50;1.65;;;;;;;11.46;81.59;94889.31;5018939;28;20071;-46
2023/11/02 12:41:42;;;;;;;8.93;1.58;;;;;;;11.41;81.74;94883.72;5020576;28;20056;-47
2023/11/02 12:44:11;;;;;;;4.20;1.73;;;;;;;11.44;80.56;94901.59;5019653;28;20100;-51
2023/11/02 12:46:40;;;;;;;2.83;1.92;;;;;;;11.34;81.65;94898.19;5022586;28;20038;-53
2023/11/02 12:54:30;;;;;;;3.10;1.70;;;;;;;11.25;81.49;94913.56;5045174;27;20750;-56
2023/11/02 12:57:00;;;;;;;4.05;1.70;;;;;;;11.19;81.20;94924.47;5024804;28;20498;-55
2023/11/02 12:59:27;;;;;;;4.75;2.38;;;;;;;11.17;81.49;94916.00;5017976;28;20065;-56
2023/11/02 13:01:59;;;;;;;3.55;1.50;;;;;;;11.18;80.56;94930.63;5024982;28;20042;-55
2023/11/02 13:04:45;;;;;;;2.95;1.75;;;;;;;11.16;81.83;94935.09;5020275;28;20046;-45
2023/11/02 13:07:30;;;;;;;2.65;1.52;;;;;;;11.10;81.02;94940.81;5018296;28;20069;-49
2023/11/02 13:10:06;;;;;;;2.15;1.38;;;;;;;11.14;81.41;94942.16;5023853;28;20148;-51
2023/11/02 13:12:34;;;;;;;3.13;1.33;;;;;;;11.18;82.45;94948.75;5023995;28;20037;-48
2023/11/02 13:15:05;;;;;;;3.50;1.75;;;;;;;11.17;81.39;94962.63;5024306;28;20046;-52
2023/11/02 13:17:32;;;;;;;3.45;1.73;;;;;;;11.22;80.97;94968.22;5024474;28;20498;-53
2023/11/02 13:19:59;;;;;;;2.80;1.45;;;;;;;11.25;81.20;94975.72;5024258;28;20064;-51
2023/11/02 13:22:26;;;;;;;2.38;1.00;;;;;;;11.14;82.17;94978.41;5024473;28;20069;-53